• Join FlightAware (Why Join?)
  • Login
  • US Flag GB Flag 
00:33 EDT


 

Airport Tracker/Info


-or-


 

Live Flight TrackerFlight Track Log ✈ N7192Y ✈ 25-May-2013 ✈ 2G9 - KDAY

Flight Track Log - Related Links

Times and Time Zones

All times are in EDT time to prevent confusion due to time zone crossing. See the N7192Y flight status page for this flight to view local times or setup timezone preferences in your user account.

Time Position Orientation Groundspeed Altitude Reporting Facility
EDT Latitude Longitude Course Direction KTS MPH feet Rate Location/Type
09:30 40.0317 -79.0375 251° West 97 112 2,800  Level Cleveland Center
09:32 40.0217 -79.0758 251° West 108 124 3,400 600 Climbing Cleveland Center
09:33 40.0161 -79.1275 262° West 128 147 4,100 780 Climbing Cleveland Center
09:34 40.0147 -79.1681 267° West 118 136 5,000 720 Climbing Cleveland Center
09:35 40.0172 -79.2061 275° West 102 117 5,700 540 Climbing Cleveland Center
09:36 40.0156 -79.2494 267° West 110 127 6,200 180 Climbing Cleveland Center
09:37 40.0161 -79.2981 271° West 133 153 6,100 -60 Descending Cleveland Center
09:38 40.0167 -79.3525 271° West 142 163 6,100  Level Cleveland Center
09:39 40.0131 -79.4011 264° West 139 160 6,100  Level Cleveland Center
09:40 40.0136 -79.4556 271° West 139 160 6,100  Level Cleveland Center
09:41 40.0142 -79.5042 271° West 138 159 6,100  Level Cleveland Center
09:43 40.0310 -79.6022 265° West  Level FlightAware Approximate
09:50 40.0167 -79.9908 270° West  Level FlightAware Approximate
09:51 40.0168 -80.0464 270° West  Level FlightAware Approximate
09:52 40.0168 -80.1021 270° West  Level FlightAware Approximate
09:53 40.0169 -80.1577 270° West  Level FlightAware Approximate
09:54 40.0169 -80.2133 270° West  Level FlightAware Approximate
09:55 40.0169 -80.2690 270° West  Level FlightAware Approximate
09:56 40.0168 -80.3246 270° West  Level FlightAware Approximate
09:56 40.0106 -80.2714 268° West 152 175 6,100  Level Cleveland Center
09:57 40.0168 -80.3802 270° West  Level FlightAware Approximate
09:57 40.0106 -80.3119 270° West 146 168 6,100  Level Cleveland Center
09:58 40.0167 -80.4359 270° West  Level FlightAware Approximate
09:58 40.0150 -80.3744 275° West 134 154 6,100  Level Cleveland Center
09:59 40.0164 -80.4915 268° West  Level FlightAware Approximate
09:59 40.0128 -80.4150 266° West 157 181 6,100  Level Cleveland Center
10:00 40.0149 -80.5471 268° West  Level FlightAware Approximate
10:00 40.0108 -80.4664 267° West 157 181 6,100  Level Cleveland Center
10:01 40.0108 -80.5181 270° West 157 181 6,100  Level Cleveland Center
10:02 40.0089 -80.5694 267° West 152 175 6,100  Level Cleveland Center
10:03 40.0089 -80.6183 270° West 147 169 6,100  Level Cleveland Center
10:04 40.0089 -80.6672 270° West 142 163 6,100  Level Cleveland Center
10:05 40.0067 -80.7186 267° West 142 163 6,100  Level Cleveland Center
10:06 40.0044 -80.7700 267° West 142 163 6,100  Level Cleveland Center
10:07 40.0044 -80.8217 270° West 142 163 6,100  Level Cleveland Center
10:08 40.0022 -80.8731 267° West 142 163 6,100  Level Cleveland Center
10:09 40.0019 -80.9219 270° West 142 163 6,100  Level Cleveland Center
10:09 39.9992 -80.9442 261° West 141 162 6,100  Level Indianapolis Center
10:10 39.9975 -80.9947 268° West 139 160 6,100  Level Indianapolis Center
10:11 39.9972 -81.0492 270° West 144 166 6,100  Level Indianapolis Center
10:12 39.9969 -81.0997 270° West 141 162 6,100  Level Indianapolis Center
10:13 39.9944 -81.1553 267° West 148 170 6,100  Level Indianapolis Center
10:14 39.9942 -81.2053 270° West 142 163 6,200  Climbing Indianapolis Center
10:15 39.9939 -81.2578 270° West 142 163 6,100  Descending Indianapolis Center
10:16 39.9922 -81.3128 268° West 148 170 6,200  Climbing Indianapolis Center
10:17 39.9914 -81.3661 269° West 147 169 6,200  Level Indianapolis Center
10:18 39.9900 -81.4269 268° West 144 166 6,200 -60 Level Indianapolis Center
10:19 39.9889 -81.4797 268° West 145 167 6,100 -60 Descending Indianapolis Center
10:20 39.9881 -81.5325 269° West 146 168 6,100  Level Indianapolis Center
10:22 39.9872 -81.5844 269° West 143 165 6,100  Level Indianapolis Center
10:23 39.9861 -81.6381 268° West 145 167 6,100  Level Indianapolis Center
10:24 39.9844 -81.6903 268° West 144 166 6,100  Level Indianapolis Center
10:25 39.9833 -81.7422 268° West 143 165 6,100  Level Indianapolis Center
10:26 39.9817 -81.8008 268° West 142 163 6,100  Level Indianapolis Center
10:27 39.9811 -81.8533 269° West 144 166 6,100  Level Indianapolis Center
10:28 39.9792 -81.9028 267° West 137 158 6,100  Level Indianapolis Center
10:29 39.9781 -81.9539 268° West 139 160 6,100  Level Indianapolis Center
10:29 39.9789 -81.9964 271° West 140 161 6,100  Level Indianapolis Center
10:30 39.9764 -82.0058 251° West 142 163 6,100  Level Indianapolis Center
10:31 39.9769 -82.0669 271° West 143 165 6,100  Level Indianapolis Center
10:32 39.9736 -82.1183 265° West 143 165 6,100  Level Indianapolis Center
10:33 39.9728 -82.1617 269° West 140 161 6,100  Level Indianapolis Center
10:34 39.9719 -82.2147 269° West 145 167 6,100  Level Indianapolis Center
10:35 39.9697 -82.2750 267° West 143 165 6,100  Level Indianapolis Center
10:36 39.9692 -82.3261 269° West 140 161 6,100  Level Indianapolis Center
10:37 39.9661 -82.3769 266° West 139 160 6,100  Level Indianapolis Center
10:38 39.9656 -82.4272 269° West 139 160 6,100  Level Indianapolis Center
10:39 39.9644 -82.4792 268° West 141 162 6,100  Level Indianapolis Center
10:40 39.9625 -82.5303 267° West 141 162 6,100  Level Indianapolis Center
10:41 39.9611 -82.5872 268° West 141 162 6,100  Level Indianapolis Center
10:42 39.9597 -82.6389 268° West 140 161 6,100  Level Indianapolis Center
10:43 39.9575 -82.6833 266° West 140 161 6,100  Level Indianapolis Center
10:44 39.9558 -82.7439 268° West 143 165 6,100  Level Indianapolis Center
10:45 39.9536 -82.7958 267° West 144 166 6,100  Level Indianapolis Center
10:46 39.9519 -82.8492 268° West 144 166 6,100  Level Indianapolis Center
10:47 39.9503 -82.9011 268° West 143 165 6,100  Level Indianapolis Center
10:48 39.9478 -82.9536 266° West 143 165 6,100  Level Indianapolis Center
10:49 39.9464 -83.0069 268° West 145 167 6,100  Level Indianapolis Center
10:50 39.9436 -83.0667 267° West 146 168 6,100  Level Indianapolis Center
10:51 39.9428 -83.1131 269° West 146 168 6,100  Level Indianapolis Center
10:52 39.9403 -83.1750 267° West 147 169 6,100  Level Indianapolis Center
10:53 39.9386 -83.2286 268° West 147 169 6,100 -60 Level Indianapolis Center
10:54 39.9369 -83.2833 268° West 148 170 6,000 -300 Descending Indianapolis Center
10:55 39.9347 -83.3383 267° West 150 173 5,500 -600 Descending Indianapolis Center
10:56 39.9331 -83.4000 268° West 162 186 4,800 -720 Descending Indianapolis Center
10:58 39.9297 -83.4622 266° West 169 194 4,100 -420 Descending Indianapolis Center
10:58 39.9261 -83.5242 266° West 163 188 4,000 -60 Descending Indianapolis Center
10:59 39.9203 -83.5750 262° West 155 178 4,000  Level Indianapolis Center
11:01 39.9092 -83.6414 258° West 157 181 4,000  Level Indianapolis Center
11:01 39.9014 -83.6869 257° West 158 182 4,000 -300 Level Indianapolis Center
11:02 39.9231 -83.7361 300° West 171 197 3,500 -480 Descending Indianapolis Center
11:03 39.9594 -83.7786 318° Northwest 169 194 3,100 -420 Descending Indianapolis Center
11:04 39.9653 -83.7856 318° Northwest 167 192 3,000 -120 Descending Indianapolis Center
11:05 39.9900 -83.8206 313° West 130 150 3,000  Level Indianapolis Center
11:05 39.9911 -83.8589 272° West 125 144 3,000 60 Level Indianapolis Center
11:06 39.9894 -83.8661 253° West 131 151 3,100  Climbing Indianapolis Center
11:07 39.9819 -83.9119 258° West 128 147 3,000 -60 Descending Indianapolis Center
11:08 39.9775 -83.9581 263° West 133 153 3,000  Level Indianapolis Center
11:09 39.9739 -84.0039 264° West 133 153 3,000  Level Indianapolis Center
11:10 39.9725 -84.0472 268° West 131 151 3,000  Level Indianapolis Center
11:10 39.9733 -84.0547 278° West 130 150 3,000  Level Indianapolis Center
11:11 39.9633 -84.0842 246° West 113 130 3,000  Level Indianapolis Center
11:11 39.9606 -84.0889 232° Southwest 115 132 3,000 -420 Level Indianapolis Center
11:12 39.9461 -84.1172 236° Southwest 108 124 2,600 -600 Descending Indianapolis Center
11:12 39.9400 -84.1278 233° Southwest 113 130 2,400 -420 Descending Indianapolis Center
11:13 39.9314 -84.1453 237° Southwest 90 104 2,200 -300 Descending Indianapolis Center
11:13 39.9281 -84.1514 235° Southwest 104 120 2,100 -660 Descending Indianapolis Center
11:13 39.9167 -84.1733 236° Southwest 99 114 1,600 -600 Descending Indianapolis Center
11:14 39.9042 -84.1989 237° Southwest 80 92 1,200 -420 Descending Indianapolis Center
11:16 39.9000 -84.2167 252° West  Level FlightAware Approximate
11:23 39.9022 -84.2194 252° West  Level Estimated